createdAt,value
2022-12-08T11:53:21.154Z,15.63
2022-12-08T11:56:46.983Z,14.38
2022-12-08T11:59:45.705Z,15.02
2022-12-08T12:02:43.563Z,15.70
2022-12-08T12:06:09.101Z,19.52
2022-12-08T12:10:09.753Z,17.92
2022-12-08T12:13:50.183Z,18.63
2022-12-08T12:17:33.767Z,18.40
2022-12-08T12:20:37.282Z,16.77
2022-12-08T12:23:47.269Z,16.92
2022-12-08T12:26:36.925Z,17.25
2022-12-08T12:29:55.322Z,16.35
2022-12-08T12:33:01.199Z,15.48
2022-12-08T12:35:50.312Z,14.13
2022-12-08T12:39:00.862Z,14.15
2022-12-08T12:41:51.321Z,13.18
2022-12-08T12:44:39.308Z,14.05
2022-12-08T12:47:55.826Z,12.88
2022-12-08T12:50:46.111Z,11.50
2022-12-08T12:53:34.065Z,12.55
2022-12-08T12:57:01.203Z,12.32
2022-12-08T13:02:57.914Z,11.95
2022-12-08T13:05:52.652Z,12.73
2022-12-08T13:08:48.808Z,13.75
2022-12-08T13:11:56.713Z,14.68
2022-12-08T13:14:47.017Z,14.40
2022-12-08T13:17:39.259Z,14.50
2022-12-08T13:20:25.425Z,14.32
2022-12-08T13:23:12.781Z,16.88
2022-12-08T13:26:18.125Z,17.52
2022-12-08T13:29:12.536Z,20.13
2022-12-08T13:32:02.004Z,19.45
2022-12-08T13:34:55.099Z,17.95
2022-12-08T13:37:54.339Z,16.13
2022-12-08T13:40:41.901Z,14.38
2022-12-08T13:44:20.500Z,14.43
2022-12-08T13:47:31.521Z,13.98
2022-12-08T13:51:16.154Z,14.02
2022-12-08T13:57:05.180Z,13.27
2022-12-08T13:59:48.604Z,14.13
2022-12-08T14:05:41.141Z,14.70
2022-12-08T14:09:00.152Z,14.02
2022-12-08T14:11:42.374Z,14.23
2022-12-08T14:15:01.111Z,15.85
2022-12-08T14:17:39.306Z,18.23
2022-12-08T14:20:27.254Z,18.67
2022-12-08T14:23:17.283Z,20.83
2022-12-08T14:26:04.874Z,24.25
2022-12-08T14:28:49.774Z,22.63
2022-12-08T14:31:34.976Z,20.33
2022-12-08T14:34:20.174Z,18.88
2022-12-08T14:37:05.932Z,18.98
2022-12-08T14:39:52.136Z,18.92
2022-12-08T14:42:51.209Z,20.02
2022-12-08T14:45:38.818Z,23.77
2022-12-08T14:48:39.002Z,22.05
2022-12-08T14:51:30.101Z,24.25
2022-12-08T14:54:18.206Z,23.63
2022-12-08T14:57:03.730Z,25.70
2022-12-08T14:59:49.581Z,21.30
2022-12-08T15:02:43.451Z,21.23
2022-12-08T15:05:31.351Z,19.08
2022-12-08T15:08:16.761Z,25.77
2022-12-08T15:11:38.863Z,26.92
2022-12-08T15:14:35.591Z,18.73
2022-12-08T15:17:35.601Z,18.50
2022-12-08T15:20:39.964Z,16.95
2022-12-08T15:23:27.992Z,17.25
2022-12-08T15:26:23.792Z,17.23
2022-12-08T15:29:27.166Z,17.10
2022-12-08T15:32:20.054Z,16.98
2022-12-08T15:35:05.239Z,17.23
2022-12-08T15:37:50.086Z,16.73
2022-12-08T15:43:20.510Z,15.52
2022-12-08T15:46:05.581Z,15.77
2022-12-08T15:48:54.915Z,16.23
2022-12-08T15:51:42.953Z,16.05
2022-12-08T15:54:27.733Z,15.73
2022-12-08T16:09:51.439Z,17.13
2022-12-08T16:16:02.679Z,15.50
2022-12-08T16:18:49.069Z,13.88
2022-12-08T16:22:23.812Z,14.77
2022-12-08T16:24:38.991Z,14.23
2022-12-08T16:30:33.303Z,16.20
2022-12-08T16:33:18.324Z,16.95
2022-12-08T16:38:48.179Z,16.02
2022-12-08T16:44:41.396Z,13.98
2022-12-08T16:47:26.297Z,16.40
2022-12-08T16:53:03.889Z,25.33
2022-12-08T16:55:49.369Z,26.13
2022-12-08T16:58:34.169Z,18.88
2022-12-08T17:07:08.714Z,17.95
2022-12-08T17:09:53.723Z,18.45
2022-12-08T17:15:25.092Z,19.92
2022-12-08T17:18:10.070Z,24.40
2022-12-08T17:20:54.987Z,21.67
2022-12-08T17:23:41.180Z,23.75
2022-12-08T17:26:25.925Z,19.25
2022-12-08T17:29:10.920Z,17.42
2022-12-08T17:34:40.920Z,23.02
2022-12-08T17:37:26.080Z,21.38
2022-12-08T17:43:46.870Z,21.63
2022-12-08T17:49:19.129Z,18.58
2022-12-08T17:52:08.755Z,19.40
2022-12-08T17:54:53.502Z,19.60
2022-12-08T17:57:38.422Z,20.55
2022-12-08T18:03:07.809Z,16.75
2022-12-08T18:08:38.249Z,17.55
2022-12-08T18:11:24.107Z,17.95
2022-12-08T18:14:09.761Z,17.92
2022-12-08T18:16:54.354Z,18.90
2022-12-08T18:22:23.830Z,17.33
2022-12-08T18:25:09.887Z,19.65
2022-12-08T18:27:54.726Z,20.75
2022-12-08T18:30:40.265Z,19.02
2022-12-08T18:33:25.813Z,18.33
2022-12-08T18:36:13.557Z,17.30
2022-12-08T18:38:58.248Z,16.77
2022-12-08T18:41:43.273Z,19.40
2022-12-08T18:47:12.725Z,18.65
2022-12-08T18:52:42.301Z,18.35
2022-12-08T18:58:13.772Z,18.27
2022-12-08T19:00:58.712Z,22.88
2022-12-08T19:03:58.492Z,21.90
2022-12-08T19:06:49.811Z,21.88
2022-12-08T19:09:34.640Z,19.55
2022-12-08T19:15:04.988Z,18.40
2022-12-08T19:17:50.040Z,20.00
2022-12-08T19:20:35.194Z,19.60
2022-12-08T19:23:20.120Z,19.48
2022-12-08T19:28:50.126Z,18.90
2022-12-08T19:31:35.060Z,21.15
2022-12-08T19:37:06.171Z,20.23
2022-12-08T19:40:09.572Z,20.45
2022-12-08T19:43:12.969Z,19.70
2022-12-08T19:45:57.934Z,21.50
2022-12-08T19:48:43.313Z,20.02
2022-12-08T19:51:28.415Z,19.33
2022-12-08T19:56:58.300Z,19.05
2022-12-08T20:02:28.793Z,17.63
2022-12-08T20:05:14.567Z,19.08
2022-12-08T20:07:59.778Z,19.50
2022-12-08T20:10:45.222Z,18.90
2022-12-08T20:13:44.838Z,18.95
2022-12-08T20:16:29.612Z,19.13
2022-12-08T20:19:15.018Z,19.60
2022-12-08T20:22:01.885Z,18.52
2022-12-08T20:24:51.905Z,18.38
2022-12-08T20:27:41.418Z,20.45
2022-12-08T20:33:13.146Z,19.77
2022-12-08T20:36:04.435Z,22.83
2022-12-08T20:38:51.796Z,22.05
2022-12-08T20:41:39.307Z,21.13
2022-12-08T20:44:24.745Z,20.98
2022-12-08T20:47:11.259Z,21.58
2022-12-08T20:49:56.309Z,21.60
2022-12-08T20:52:41.222Z,21.63
2022-12-08T20:55:26.071Z,20.38
2022-12-08T20:58:11.506Z,20.77
2022-12-08T21:00:56.407Z,20.88
2022-12-08T21:03:42.314Z,22.60
2022-12-08T21:06:27.480Z,21.27
2022-12-08T21:09:12.559Z,21.85
2022-12-08T21:14:42.118Z,22.52
2022-12-08T21:20:13.027Z,22.50
2022-12-08T21:22:59.361Z,21.55
2022-12-08T21:26:05.051Z,22.13
2022-12-08T21:28:49.760Z,20.80
2022-12-08T21:31:36.570Z,22.05
2022-12-08T21:34:21.904Z,20.27
2022-12-08T21:39:51.916Z,18.92
2022-12-08T21:45:33.303Z,19.08
2022-12-08T21:48:18.290Z,20.63
2022-12-08T21:51:04.841Z,19.25
2022-12-08T21:53:50.219Z,21.08
2022-12-08T21:56:35.169Z,20.77
2022-12-08T22:02:09.936Z,18.73
2022-12-08T22:04:55.453Z,19.70
2022-12-08T22:07:40.815Z,19.33
2022-12-08T22:10:26.130Z,21.75
2022-12-08T22:16:01.732Z,19.05
2022-12-08T22:18:47.111Z,19.70
2022-12-08T22:21:32.372Z,20.77
2022-12-08T22:24:17.166Z,20.30
2022-12-08T22:29:47.201Z,20.15
2022-12-08T22:35:18.293Z,20.70
2022-12-08T22:40:48.113Z,19.67
2022-12-08T22:43:33.206Z,22.02
2022-12-08T22:49:11.239Z,17.83
2022-12-08T22:51:56.350Z,19.50
2022-12-08T22:57:27.864Z,16.88
2022-12-08T23:00:13.301Z,18.95
2022-12-08T23:02:58.279Z,19.40
2022-12-08T23:05:43.033Z,19.45
2022-12-08T23:08:28.677Z,18.75
2022-12-08T23:11:13.938Z,18.25
2022-12-08T23:16:46.697Z,16.55
2022-12-08T23:22:16.534Z,15.93
2022-12-08T23:25:01.363Z,17.13
2022-12-08T23:30:31.612Z,17.05
2022-12-08T23:33:16.561Z,18.50
2022-12-08T23:36:01.846Z,18.58
2022-12-08T23:38:47.673Z,18.50
2022-12-08T23:41:32.614Z,17.10
2022-12-08T23:47:02.670Z,17.38
2022-12-08T23:52:32.651Z,15.88
2022-12-08T23:55:17.630Z,17.67
